sensor_id;sensor_type;location;lat;lon;timestamp;P1;durP1;ratioP1;P2;durP2;ratioP2
72273;SDS011;60208;48.692;8.948;2023-05-13T00:00:47;4.50;;;3.78;;
72273;SDS011;60208;48.692;8.948;2023-05-13T00:03:12;4.20;;;3.80;;
72273;SDS011;60208;48.692;8.948;2023-05-13T00:05:37;5.45;;;3.60;;
72273;SDS011;60208;48.692;8.948;2023-05-13T00:08:04;4.03;;;3.72;;
72273;SDS011;60208;48.692;8.948;2023-05-13T00:10:34;6.75;;;3.58;;
72273;SDS011;60208;48.692;8.948;2023-05-13T00:13:02;5.07;;;3.70;;
72273;SDS011;60208;48.692;8.948;2023-05-13T00:15:28;4.40;;;4.00;;
72273;SDS011;60208;48.692;8.948;2023-05-13T00:17:53;4.55;;;4.00;;
72273;SDS011;60208;48.692;8.948;2023-05-13T00:20:19;4.60;;;3.70;;
72273;SDS011;60208;48.692;8.948;2023-05-13T00:22:44;5.07;;;3.83;;
72273;SDS011;60208;48.692;8.948;2023-05-13T00:25:10;6.07;;;4.07;;
72273;SDS011;60208;48.692;8.948;2023-05-13T00:27:35;4.97;;;3.95;;
72273;SDS011;60208;48.692;8.948;2023-05-13T00:30:00;4.22;;;3.83;;
72273;SDS011;60208;48.692;8.948;2023-05-13T00:32:29;4.68;;;3.80;;
72273;SDS011;60208;48.692;8.948;2023-05-13T00:34:54;5.55;;;3.80;;
72273;SDS011;60208;48.692;8.948;2023-05-13T00:37:20;3.95;;;3.65;;
72273;SDS011;60208;48.692;8.948;2023-05-13T00:39:48;4.35;;;3.95;;
72273;SDS011;60208;48.692;8.948;2023-05-13T00:42:13;4.53;;;3.95;;
72273;SDS011;60208;48.692;8.948;2023-05-13T00:44:39;4.40;;;4.00;;
72273;SDS011;60208;48.692;8.948;2023-05-13T00:47:05;4.38;;;3.97;;
72273;SDS011;60208;48.692;8.948;2023-05-13T00:49:33;4.10;;;3.70;;
72273;SDS011;60208;48.692;8.948;2023-05-13T00:51:59;5.65;;;3.90;;
72273;SDS011;60208;48.692;8.948;2023-05-13T00:54:25;5.75;;;3.67;;
72273;SDS011;60208;48.692;8.948;2023-05-13T00:56:53;4.13;;;3.80;;
72273;SDS011;60208;48.692;8.948;2023-05-13T00:59:24;3.55;;;3.25;;
72273;SDS011;60208;48.692;8.948;2023-05-13T01:01:59;4.47;;;3.47;;
72273;SDS011;60208;48.692;8.948;2023-05-13T01:10:18;4.95;;;3.55;;
72273;SDS011;60208;48.692;8.948;2023-05-13T01:12:58;3.40;;;3.10;;
72273;SDS011;60208;48.692;8.948;2023-05-13T01:15:27;3.30;;;3.05;;
72273;SDS011;60208;48.692;8.948;2023-05-13T01:18:07;3.42;;;3.13;;
72273;SDS011;60208;48.692;8.948;2023-05-13T01:20:34;3.45;;;2.88;;
72273;SDS011;60208;48.692;8.948;2023-05-13T01:23:02;4.00;;;3.22;;
72273;SDS011;60208;48.692;8.948;2023-05-13T01:25:28;3.90;;;3.10;;
72273;SDS011;60208;48.692;8.948;2023-05-13T01:27:53;4.05;;;3.65;;
72273;SDS011;60208;48.692;8.948;2023-05-13T01:30:19;6.03;;;3.45;;
72273;SDS011;60208;48.692;8.948;2023-05-13T01:32:45;4.40;;;3.63;;
72273;SDS011;60208;48.692;8.948;2023-05-13T01:35:11;4.35;;;3.72;;
72273;SDS011;60208;48.692;8.948;2023-05-13T01:37:37;5.47;;;3.78;;
72273;SDS011;60208;48.692;8.948;2023-05-13T01:40:05;5.85;;;4.07;;
72273;SDS011;60208;48.692;8.948;2023-05-13T01:42:32;6.22;;;4.05;;
72273;SDS011;60208;48.692;8.948;2023-05-13T01:44:58;4.90;;;4.15;;
72273;SDS011;60208;48.692;8.948;2023-05-13T01:47:24;5.05;;;4.50;;
72273;SDS011;60208;48.692;8.948;2023-05-13T01:49:52;4.30;;;3.75;;
72273;SDS011;60208;48.692;8.948;2023-05-13T01:52:18;4.43;;;4.03;;
72273;SDS011;60208;48.692;8.948;2023-05-13T01:54:43;6.93;;;4.00;;
72273;SDS011;60208;48.692;8.948;2023-05-13T01:57:08;4.70;;;4.20;;
72273;SDS011;60208;48.692;8.948;2023-05-13T01:59:34;4.72;;;4.15;;
72273;SDS011;60208;48.692;8.948;2023-05-13T02:02:02;4.95;;;3.70;;
72273;SDS011;60208;48.692;8.948;2023-05-13T02:04:28;4.40;;;4.00;;
72273;SDS011;60208;48.692;8.948;2023-05-13T02:06:57;5.85;;;3.83;;
72273;SDS011;60208;48.692;8.948;2023-05-13T02:09:22;4.35;;;3.95;;
72273;SDS011;60208;48.692;8.948;2023-05-13T02:11:52;4.55;;;4.15;;
72273;SDS011;60208;48.692;8.948;2023-05-13T02:14:17;3.85;;;3.53;;
72273;SDS011;60208;48.692;8.948;2023-05-13T02:16:43;4.15;;;3.80;;
72273;SDS011;60208;48.692;8.948;2023-05-13T02:19:08;4.53;;;4.13;;
72273;SDS011;60208;48.692;8.948;2023-05-13T02:21:34;7.13;;;4.35;;
72273;SDS011;60208;48.692;8.948;2023-05-13T02:23:59;7.50;;;4.22;;
72273;SDS011;60208;48.692;8.948;2023-05-13T02:26:25;6.35;;;4.15;;
72273;SDS011;60208;48.692;8.948;2023-05-13T02:28:52;6.35;;;4.20;;
72273;SDS011;60208;48.692;8.948;2023-05-13T02:31:17;4.43;;;4.00;;
72273;SDS011;60208;48.692;8.948;2023-05-13T02:33:42;5.07;;;4.25;;
72273;SDS011;60208;48.692;8.948;2023-05-13T02:36:08;4.25;;;3.85;;
72273;SDS011;60208;48.692;8.948;2023-05-13T02:38:33;5.20;;;4.28;;
72273;SDS011;60208;48.692;8.948;2023-05-13T02:40:59;5.75;;;3.88;;
72273;SDS011;60208;48.692;8.948;2023-05-13T02:43:25;5.15;;;4.35;;
72273;SDS011;60208;48.692;8.948;2023-05-13T02:45:51;6.57;;;4.13;;
72273;SDS011;60208;48.692;8.948;2023-05-13T02:48:17;4.47;;;4.07;;
72273;SDS011;60208;48.692;8.948;2023-05-13T02:50:43;4.75;;;4.25;;
72273;SDS011;60208;48.692;8.948;2023-05-13T02:53:08;4.78;;;4.32;;
72273;SDS011;60208;48.692;8.948;2023-05-13T02:55:34;5.45;;;4.32;;
72273;SDS011;60208;48.692;8.948;2023-05-13T02:57:59;4.78;;;4.30;;
72273;SDS011;60208;48.692;8.948;2023-05-13T03:00:25;4.72;;;4.32;;
72273;SDS011;60208;48.692;8.948;2023-05-13T03:02:50;5.10;;;4.32;;
72273;SDS011;60208;48.692;8.948;2023-05-13T03:05:15;6.72;;;4.55;;
72273;SDS011;60208;48.692;8.948;2023-05-13T03:07:41;5.20;;;4.43;;
72273;SDS011;60208;48.692;8.948;2023-05-13T03:10:07;4.75;;;3.97;;
72273;SDS011;60208;48.692;8.948;2023-05-13T03:12:33;5.03;;;4.30;;
72273;SDS011;60208;48.692;8.948;2023-05-13T03:14:59;5.32;;;4.82;;
72273;SDS011;60208;48.692;8.948;2023-05-13T03:17:30;4.57;;;4.18;;
72273;SDS011;60208;48.692;8.948;2023-05-13T03:19:56;4.45;;;4.05;;
72273;SDS011;60208;48.692;8.948;2023-05-13T03:22:21;7.93;;;4.20;;
72273;SDS011;60208;48.692;8.948;2023-05-13T03:24:47;5.25;;;4.38;;
72273;SDS011;60208;48.692;8.948;2023-05-13T03:27:15;4.68;;;4.28;;
72273;SDS011;60208;48.692;8.948;2023-05-13T03:29:40;4.38;;;3.97;;
72273;SDS011;60208;48.692;8.948;2023-05-13T03:32:06;6.45;;;4.28;;
72273;SDS011;60208;48.692;8.948;2023-05-13T03:34:31;4.65;;;4.00;;
72273;SDS011;60208;48.692;8.948;2023-05-13T03:36:57;4.55;;;4.10;;
72273;SDS011;60208;48.692;8.948;2023-05-13T03:39:25;4.25;;;3.85;;
72273;SDS011;60208;48.692;8.948;2023-05-13T03:41:52;5.05;;;4.07;;
72273;SDS011;60208;48.692;8.948;2023-05-13T03:44:21;4.65;;;4.20;;
72273;SDS011;60208;48.692;8.948;2023-05-13T03:46:49;4.82;;;4.43;;
72273;SDS011;60208;48.692;8.948;2023-05-13T03:49:15;5.88;;;3.78;;
72273;SDS011;60208;48.692;8.948;2023-05-13T03:51:42;4.57;;;3.97;;
72273;SDS011;60208;48.692;8.948;2023-05-13T03:54:08;5.65;;;4.07;;
72273;SDS011;60208;48.692;8.948;2023-05-13T03:56:41;4.20;;;3.80;;
72273;SDS011;60208;48.692;8.948;2023-05-13T03:59:09;4.22;;;3.83;;
72273;SDS011;60208;48.692;8.948;2023-05-13T04:01:34;5.32;;;3.90;;
72273;SDS011;60208;48.692;8.948;2023-05-13T04:04:00;4.80;;;4.32;;
72273;SDS011;60208;48.692;8.948;2023-05-13T04:06:25;4.95;;;3.97;;
72273;SDS011;60208;48.692;8.948;2023-05-13T04:08:50;5.43;;;4.50;;
72273;SDS011;60208;48.692;8.948;2023-05-13T04:11:16;5.32;;;4.35;;
72273;SDS011;60208;48.692;8.948;2023-05-13T04:13:41;6.57;;;3.92;;
72273;SDS011;60208;48.692;8.948;2023-05-13T04:16:12;4.70;;;4.22;;
72273;SDS011;60208;48.692;8.948;2023-05-13T04:18:38;4.75;;;3.90;;
72273;SDS011;60208;48.692;8.948;2023-05-13T04:21:07;5.05;;;4.00;;
72273;SDS011;60208;48.692;8.948;2023-05-13T04:23:33;4.32;;;3.92;;
72273;SDS011;60208;48.692;8.948;2023-05-13T04:25:58;4.30;;;3.90;;
72273;SDS011;60208;48.692;8.948;2023-05-13T04:28:23;6.82;;;3.95;;
72273;SDS011;60208;48.692;8.948;2023-05-13T04:30:49;6.47;;;3.70;;
72273;SDS011;60208;48.692;8.948;2023-05-13T04:33:14;4.30;;;3.70;;
72273;SDS011;60208;48.692;8.948;2023-05-13T04:35:40;4.40;;;3.90;;
72273;SDS011;60208;48.692;8.948;2023-05-13T04:38:06;4.10;;;3.70;;
72273;SDS011;60208;48.692;8.948;2023-05-13T04:40:36;4.63;;;4.00;;
72273;SDS011;60208;48.692;8.948;2023-05-13T04:43:02;5.07;;;3.97;;
72273;SDS011;60208;48.692;8.948;2023-05-13T04:45:28;4.32;;;3.70;;
72273;SDS011;60208;48.692;8.948;2023-05-13T04:47:55;5.50;;;4.13;;
72273;SDS011;60208;48.692;8.948;2023-05-13T04:50:21;5.35;;;4.07;;
72273;SDS011;60208;48.692;8.948;2023-05-13T04:52:49;4.20;;;3.80;;
72273;SDS011;60208;48.692;8.948;2023-05-13T04:55:24;5.47;;;3.90;;
72273;SDS011;60208;48.692;8.948;2023-05-13T04:57:53;4.72;;;3.45;;
72273;SDS011;60208;48.692;8.948;2023-05-13T05:00:18;3.85;;;3.55;;
72273;SDS011;60208;48.692;8.948;2023-05-13T05:02:43;4.60;;;3.60;;
72273;SDS011;60208;48.692;8.948;2023-05-13T05:05:09;3.80;;;3.50;;
72273;SDS011;60208;48.692;8.948;2023-05-13T05:07:34;3.90;;;3.60;;
72273;SDS011;60208;48.692;8.948;2023-05-13T05:10:04;3.83;;;3.53;;
72273;SDS011;60208;48.692;8.948;2023-05-13T05:12:33;4.07;;;3.22;;
72273;SDS011;60208;48.692;8.948;2023-05-13T05:14:59;7.22;;;3.88;;
72273;SDS011;60208;48.692;8.948;2023-05-13T05:17:24;3.45;;;3.15;;
72273;SDS011;60208;48.692;8.948;2023-05-13T05:19:51;5.05;;;3.53;;
72273;SDS011;60208;48.692;8.948;2023-05-13T05:22:17;3.40;;;3.10;;
72273;SDS011;60208;48.692;8.948;2023-05-13T05:24:42;4.85;;;3.58;;
72273;SDS011;60208;48.692;8.948;2023-05-13T05:27:08;5.88;;;3.50;;
72273;SDS011;60208;48.692;8.948;2023-05-13T05:29:34;4.53;;;3.20;;
72273;SDS011;60208;48.692;8.948;2023-05-13T05:31:59;3.50;;;3.20;;
72273;SDS011;60208;48.692;8.948;2023-05-13T05:34:25;4.00;;;3.30;;
72273;SDS011;60208;48.692;8.948;2023-05-13T05:36:53;4.45;;;3.22;;
72273;SDS011;60208;48.692;8.948;2023-05-13T05:39:22;7.70;;;3.42;;
72273;SDS011;60208;48.692;8.948;2023-05-13T05:41:47;4.15;;;3.22;;
72273;SDS011;60208;48.692;8.948;2023-05-13T05:44:24;3.50;;;3.20;;
72273;SDS011;60208;48.692;8.948;2023-05-13T05:46:49;3.42;;;3.10;;
72273;SDS011;60208;48.692;8.948;2023-05-13T05:49:16;4.35;;;3.25;;
72273;SDS011;60208;48.692;8.948;2023-05-13T05:51:48;6.13;;;3.08;;
72273;SDS011;60208;48.692;8.948;2023-05-13T05:54:13;3.50;;;3.20;;
72273;SDS011;60208;48.692;8.948;2023-05-13T05:56:39;5.68;;;3.10;;
72273;SDS011;60208;48.692;8.948;2023-05-13T05:59:04;4.07;;;2.88;;
72273;SDS011;60208;48.692;8.948;2023-05-13T06:01:29;4.82;;;3.20;;
72273;SDS011;60208;48.692;8.948;2023-05-13T06:04:05;3.20;;;2.90;;
72273;SDS011;60208;48.692;8.948;2023-05-13T06:06:31;3.47;;;3.03;;
72273;SDS011;60208;48.692;8.948;2023-05-13T06:09:00;3.28;;;2.80;;
72273;SDS011;60208;48.692;8.948;2023-05-13T06:11:25;5.50;;;2.75;;
72273;SDS011;60208;48.692;8.948;2023-05-13T06:13:52;3.30;;;2.72;;
72273;SDS011;60208;48.692;8.948;2023-05-13T06:16:18;4.10;;;3.08;;
72273;SDS011;60208;48.692;8.948;2023-05-13T06:18:43;3.05;;;2.75;;
72273;SDS011;60208;48.692;8.948;2023-05-13T06:21:08;3.63;;;3.00;;
72273;SDS011;60208;48.692;8.948;2023-05-13T06:23:37;3.50;;;2.83;;
72273;SDS011;60208;48.692;8.948;2023-05-13T06:26:02;5.22;;;3.15;;
72273;SDS011;60208;48.692;8.948;2023-05-13T06:28:30;3.45;;;3.15;;
72273;SDS011;60208;48.692;8.948;2023-05-13T06:30:56;3.67;;;3.38;;
72273;SDS011;60208;48.692;8.948;2023-05-13T06:33:21;3.92;;;3.00;;
72273;SDS011;60208;48.692;8.948;2023-05-13T06:35:47;3.60;;;3.03;;
72273;SDS011;60208;48.692;8.948;2023-05-13T06:38:13;4.43;;;2.97;;
72273;SDS011;60208;48.692;8.948;2023-05-13T06:40:42;3.25;;;2.95;;
72273;SDS011;60208;48.692;8.948;2023-05-13T06:43:09;3.80;;;3.00;;
72273;SDS011;60208;48.692;8.948;2023-05-13T06:45:36;3.83;;;3.10;;
72273;SDS011;60208;48.692;8.948;2023-05-13T06:48:05;3.45;;;3.15;;
72273;SDS011;60208;48.692;8.948;2023-05-13T06:50:30;4.93;;;2.80;;
72273;SDS011;60208;48.692;8.948;2023-05-13T06:52:55;4.00;;;3.20;;
72273;SDS011;60208;48.692;8.948;2023-05-13T06:55:21;3.88;;;3.40;;
72273;SDS011;60208;48.692;8.948;2023-05-13T06:57:49;5.53;;;3.40;;
72273;SDS011;60208;48.692;8.948;2023-05-13T07:00:20;4.07;;;3.20;;
72273;SDS011;60208;48.692;8.948;2023-05-13T07:02:45;5.28;;;3.05;;
72273;SDS011;60208;48.692;8.948;2023-05-13T07:05:11;6.10;;;3.15;;
72273;SDS011;60208;48.692;8.948;2023-05-13T07:07:36;3.75;;;3.17;;
72273;SDS011;60208;48.692;8.948;2023-05-13T07:10:02;5.32;;;3.13;;
72273;SDS011;60208;48.692;8.948;2023-05-13T07:12:28;3.78;;;3.30;;
72273;SDS011;60208;48.692;8.948;2023-05-13T07:14:53;5.03;;;3.15;;
72273;SDS011;60208;48.692;8.948;2023-05-13T07:17:18;6.57;;;3.10;;
72273;SDS011;60208;48.692;8.948;2023-05-13T07:19:47;3.65;;;3.35;;
72273;SDS011;60208;48.692;8.948;2023-05-13T07:22:12;14.43;;;3.67;;
72273;SDS011;60208;48.692;8.948;2023-05-13T07:24:38;4.40;;;3.38;;
72273;SDS011;60208;48.692;8.948;2023-05-13T07:27:05;4.57;;;3.42;;
72273;SDS011;60208;48.692;8.948;2023-05-13T07:29:30;4.20;;;3.22;;
72273;SDS011;60208;48.692;8.948;2023-05-13T07:32:17;4.13;;;3.38;;
72273;SDS011;60208;48.692;8.948;2023-05-13T07:34:43;6.05;;;3.83;;
72273;SDS011;60208;48.692;8.948;2023-05-13T07:37:08;7.22;;;3.40;;
72273;SDS011;60208;48.692;8.948;2023-05-13T07:39:33;5.55;;;3.40;;
72273;SDS011;60208;48.692;8.948;2023-05-13T07:41:59;4.13;;;3.65;;
72273;SDS011;60208;48.692;8.948;2023-05-13T07:44:25;8.63;;;3.75;;
72273;SDS011;60208;48.692;8.948;2023-05-13T07:46:50;4.43;;;3.28;;
72273;SDS011;60208;48.692;8.948;2023-05-13T07:49:19;4.22;;;3.38;;
72273;SDS011;60208;48.692;8.948;2023-05-13T07:51:45;6.10;;;3.50;;
72273;SDS011;60208;48.692;8.948;2023-05-13T07:54:11;4.18;;;3.47;;
72273;SDS011;60208;48.692;8.948;2023-05-13T07:56:36;4.05;;;3.55;;
72273;SDS011;60208;48.692;8.948;2023-05-13T07:59:02;5.57;;;3.22;;
72273;SDS011;60208;48.692;8.948;2023-05-13T08:01:28;7.82;;;3.53;;
72273;SDS011;60208;48.692;8.948;2023-05-13T08:03:54;5.32;;;3.97;;
72273;SDS011;60208;48.692;8.948;2023-05-13T08:06:26;6.88;;;3.80;;
72273;SDS011;60208;48.692;8.948;2023-05-13T08:08:52;4.45;;;3.63;;
72273;SDS011;60208;48.692;8.948;2023-05-13T08:11:17;4.57;;;3.20;;
72273;SDS011;60208;48.692;8.948;2023-05-13T08:13:43;3.97;;;3.50;;
72273;SDS011;60208;48.692;8.948;2023-05-13T08:16:08;5.10;;;3.42;;
72273;SDS011;60208;48.692;8.948;2023-05-13T08:18:37;4.55;;;3.72;;
72273;SDS011;60208;48.692;8.948;2023-05-13T08:21:02;5.28;;;3.50;;
72273;SDS011;60208;48.692;8.948;2023-05-13T08:23:31;4.80;;;3.78;;
72273;SDS011;60208;48.692;8.948;2023-05-13T08:25:56;5.35;;;3.60;;
72273;SDS011;60208;48.692;8.948;2023-05-13T08:28:24;5.85;;;4.22;;
72273;SDS011;60208;48.692;8.948;2023-05-13T08:30:51;4.43;;;4.03;;
72273;SDS011;60208;48.692;8.948;2023-05-13T08:33:19;4.13;;;3.78;;
72273;SDS011;60208;48.692;8.948;2023-05-13T08:35:45;4.82;;;4.18;;
72273;SDS011;60208;48.692;8.948;2023-05-13T08:38:22;6.40;;;4.30;;
72273;SDS011;60208;48.692;8.948;2023-05-13T08:40:47;6.97;;;4.10;;
72273;SDS011;60208;48.692;8.948;2023-05-13T08:43:14;4.70;;;3.80;;
72273;SDS011;60208;48.692;8.948;2023-05-13T08:45:46;4.03;;;3.58;;
72273;SDS011;60208;48.692;8.948;2023-05-13T08:48:13;3.95;;;3.50;;
72273;SDS011;60208;48.692;8.948;2023-05-13T08:50:39;4.82;;;3.53;;
72273;SDS011;60208;48.692;8.948;2023-05-13T08:53:05;5.68;;;4.05;;
72273;SDS011;60208;48.692;8.948;2023-05-13T08:55:40;4.03;;;3.38;;
72273;SDS011;60208;48.692;8.948;2023-05-13T08:58:08;4.93;;;3.10;;
72273;SDS011;60208;48.692;8.948;2023-05-13T09:00:34;3.90;;;3.35;;
72273;SDS011;60208;48.692;8.948;2023-05-13T09:03:00;5.68;;;3.20;;
72273;SDS011;60208;48.692;8.948;2023-05-13T09:05:26;4.18;;;3.00;;
72273;SDS011;60208;48.692;8.948;2023-05-13T09:07:54;3.60;;;2.83;;
72273;SDS011;60208;48.692;8.948;2023-05-13T09:10:32;4.68;;;2.85;;
72273;SDS011;60208;48.692;8.948;2023-05-13T09:12:58;5.18;;;3.20;;
72273;SDS011;60208;48.692;8.948;2023-05-13T09:15:26;3.75;;;3.00;;
72273;SDS011;60208;48.692;8.948;2023-05-13T09:17:57;5.20;;;3.25;;
72273;SDS011;60208;48.692;8.948;2023-05-13T09:20:31;4.22;;;3.15;;
72273;SDS011;60208;48.692;8.948;2023-05-13T09:23:02;5.00;;;3.42;;
72273;SDS011;60208;48.692;8.948;2023-05-13T09:25:37;4.38;;;3.50;;
72273;SDS011;60208;48.692;8.948;2023-05-13T09:28:06;5.30;;;3.45;;
72273;SDS011;60208;48.692;8.948;2023-05-13T09:30:44;5.35;;;2.65;;
72273;SDS011;60208;48.692;8.948;2023-05-13T09:33:34;4.35;;;3.20;;
72273;SDS011;60208;48.692;8.948;2023-05-13T09:36:08;3.15;;;2.85;;
72273;SDS011;60208;48.692;8.948;2023-05-13T09:38:40;5.55;;;3.03;;
72273;SDS011;60208;48.692;8.948;2023-05-13T09:41:18;4.88;;;2.95;;
72273;SDS011;60208;48.692;8.948;2023-05-13T09:44:12;4.72;;;2.65;;
72273;SDS011;60208;48.692;8.948;2023-05-13T09:46:41;4.13;;;2.90;;
72273;SDS011;60208;48.692;8.948;2023-05-13T09:49:09;4.22;;;2.97;;
72273;SDS011;60208;48.692;8.948;2023-05-13T09:51:35;3.95;;;2.70;;
72273;SDS011;60208;48.692;8.948;2023-05-13T09:57:05;3.75;;;2.58;;
72273;SDS011;60208;48.692;8.948;2023-05-13T09:59:31;2.80;;;2.25;;
72273;SDS011;60208;48.692;8.948;2023-05-13T10:02:25;2.78;;;2.30;;
72273;SDS011;60208;48.692;8.948;2023-05-13T10:04:54;7.82;;;2.80;;
72273;SDS011;60208;48.692;8.948;2023-05-13T10:07:38;5.32;;;2.80;;
72273;SDS011;60208;48.692;8.948;2023-05-13T10:10:05;4.95;;;2.70;;
72273;SDS011;60208;48.692;8.948;2023-05-13T10:12:35;3.38;;;2.40;;
72273;SDS011;60208;48.692;8.948;2023-05-13T10:15:05;3.10;;;2.13;;
72273;SDS011;60208;48.692;8.948;2023-05-13T10:17:31;3.25;;;2.20;;
72273;SDS011;60208;48.692;8.948;2023-05-13T10:19:56;3.53;;;2.75;;
72273;SDS011;60208;48.692;8.948;2023-05-13T10:22:26;3.20;;;2.70;;
72273;SDS011;60208;48.692;8.948;2023-05-13T10:24:52;2.03;;;1.92;;
72273;SDS011;60208;48.692;8.948;2023-05-13T10:27:26;3.38;;;2.38;;
72273;SDS011;60208;48.692;8.948;2023-05-13T10:29:53;2.30;;;2.10;;
72273;SDS011;60208;48.692;8.948;2023-05-13T10:32:37;2.25;;;1.80;;
72273;SDS011;60208;48.692;8.948;2023-05-13T10:35:05;2.65;;;2.00;;
72273;SDS011;60208;48.692;8.948;2023-05-13T10:43:18;2.67;;;2.00;;
72273;SDS011;60208;48.692;8.948;2023-05-13T10:45:48;3.10;;;2.20;;
72273;SDS011;60208;48.692;8.948;2023-05-13T10:51:07;3.35;;;2.30;;
72273;SDS011;60208;48.692;8.948;2023-05-13T10:53:42;3.50;;;2.40;;
72273;SDS011;60208;48.692;8.948;2023-05-13T10:56:11;2.42;;;2.22;;
72273;SDS011;60208;48.692;8.948;2023-05-13T10:58:37;2.40;;;2.20;;
72273;SDS011;60208;48.692;8.948;2023-05-13T11:04:02;2.75;;;2.17;;
72273;SDS011;60208;48.692;8.948;2023-05-13T11:06:37;2.53;;;2.20;;
72273;SDS011;60208;48.692;8.948;2023-05-13T11:09:14;2.90;;;2.55;;
72273;SDS011;60208;48.692;8.948;2023-05-13T11:12:11;4.13;;;2.75;;
72273;SDS011;60208;48.692;8.948;2023-05-13T11:14:40;3.70;;;3.13;;
72273;SDS011;60208;48.692;8.948;2023-05-13T11:17:15;2.10;;;1.90;;
72273;SDS011;60208;48.692;8.948;2023-05-13T11:19:49;2.05;;;1.92;;
72273;SDS011;60208;48.692;8.948;2023-05-13T11:22:35;3.22;;;2.45;;
72273;SDS011;60208;48.692;8.948;2023-05-13T11:25:08;2.78;;;2.47;;
72273;SDS011;60208;48.692;8.948;2023-05-13T11:30:26;3.00;;;2.67;;
72273;SDS011;60208;48.692;8.948;2023-05-13T11:32:58;4.35;;;3.20;;
72273;SDS011;60208;48.692;8.948;2023-05-13T11:38:31;5.22;;;2.83;;
72273;SDS011;60208;48.692;8.948;2023-05-13T11:40:59;5.53;;;2.90;;
72273;SDS011;60208;48.692;8.948;2023-05-13T11:43:25;3.53;;;3.10;;
72273;SDS011;60208;48.692;8.948;2023-05-13T11:45:59;3.70;;;3.25;;
72273;SDS011;60208;48.692;8.948;2023-05-13T11:48:25;4.63;;;3.40;;
72273;SDS011;60208;48.692;8.948;2023-05-13T11:50:51;3.55;;;3.03;;
72273;SDS011;60208;48.692;8.948;2023-05-13T11:53:24;4.65;;;3.55;;
72273;SDS011;60208;48.692;8.948;2023-05-13T11:55:49;5.28;;;3.90;;
72273;SDS011;60208;48.692;8.948;2023-05-13T11:58:15;4.18;;;2.95;;
72273;SDS011;60208;48.692;8.948;2023-05-13T12:00:44;3.97;;;3.30;;
72273;SDS011;60208;48.692;8.948;2023-05-13T12:03:10;5.70;;;3.28;;
72273;SDS011;60208;48.692;8.948;2023-05-13T12:05:39;5.78;;;3.30;;
72273;SDS011;60208;48.692;8.948;2023-05-13T12:08:11;4.15;;;3.10;;
72273;SDS011;60208;48.692;8.948;2023-05-13T12:10:43;5.38;;;2.80;;
72273;SDS011;60208;48.692;8.948;2023-05-13T12:13:11;4.50;;;2.70;;
72273;SDS011;60208;48.692;8.948;2023-05-13T12:15:37;5.22;;;2.65;;
72273;SDS011;60208;48.692;8.948;2023-05-13T12:18:17;3.17;;;2.88;;
72273;SDS011;60208;48.692;8.948;2023-05-13T12:20:46;4.50;;;2.80;;
72273;SDS011;60208;48.692;8.948;2023-05-13T12:23:24;3.17;;;2.63;;
72273;SDS011;60208;48.692;8.948;2023-05-13T12:25:57;2.47;;;2.20;;
72273;SDS011;60208;48.692;8.948;2023-05-13T12:28:34;3.85;;;3.38;;
72273;SDS011;60208;48.692;8.948;2023-05-13T12:31:00;3.38;;;2.67;;
72273;SDS011;60208;48.692;8.948;2023-05-13T12:33:42;5.32;;;2.70;;
72273;SDS011;60208;48.692;8.948;2023-05-13T12:38:55;3.63;;;2.85;;
72273;SDS011;60208;48.692;8.948;2023-05-13T12:41:25;3.35;;;2.78;;
72273;SDS011;60208;48.692;8.948;2023-05-13T12:43:58;4.88;;;3.00;;
72273;SDS011;60208;48.692;8.948;2023-05-13T12:46:27;3.78;;;3.10;;
72273;SDS011;60208;48.692;8.948;2023-05-13T12:48:56;3.38;;;3.08;;
72273;SDS011;60208;48.692;8.948;2023-05-13T12:51:23;4.43;;;3.03;;
72273;SDS011;60208;48.692;8.948;2023-05-13T12:53:48;3.30;;;3.00;;
72273;SDS011;60208;48.692;8.948;2023-05-13T12:56:20;3.08;;;2.78;;
72273;SDS011;60208;48.692;8.948;2023-05-13T12:58:46;3.30;;;3.00;;
72273;SDS011;60208;48.692;8.948;2023-05-13T13:01:15;4.35;;;3.00;;
72273;SDS011;60208;48.692;8.948;2023-05-13T13:03:41;3.78;;;3.10;;
72273;SDS011;60208;48.692;8.948;2023-05-13T13:06:06;4.95;;;2.72;;
72273;SDS011;60208;48.692;8.948;2023-05-13T13:08:32;3.40;;;3.10;;
72273;SDS011;60208;48.692;8.948;2023-05-13T13:10:58;3.30;;;3.00;;
72273;SDS011;60208;48.692;8.948;2023-05-13T13:13:24;3.22;;;2.92;;
72273;SDS011;60208;48.692;8.948;2023-05-13T13:15:49;3.90;;;2.80;;
72273;SDS011;60208;48.692;8.948;2023-05-13T13:18:15;3.00;;;2.63;;
72273;SDS011;60208;48.692;8.948;2023-05-13T13:20:41;2.85;;;2.47;;
72273;SDS011;60208;48.692;8.948;2023-05-13T13:23:10;6.22;;;2.63;;
72273;SDS011;60208;48.692;8.948;2023-05-13T13:25:35;4.43;;;2.95;;
72273;SDS011;60208;48.692;8.948;2023-05-13T13:28:01;4.72;;;2.67;;
72273;SDS011;60208;48.692;8.948;2023-05-13T13:30:26;3.63;;;2.60;;
72273;SDS011;60208;48.692;8.948;2023-05-13T13:32:52;3.45;;;2.85;;
72273;SDS011;60208;48.692;8.948;2023-05-13T13:35:17;2.42;;;2.22;;
72273;SDS011;60208;48.692;8.948;2023-05-13T13:37:42;3.15;;;2.63;;
72273;SDS011;60208;48.692;8.948;2023-05-13T13:40:08;4.10;;;2.88;;
72273;SDS011;60208;48.692;8.948;2023-05-13T13:42:34;5.20;;;3.30;;
72273;SDS011;60208;48.692;8.948;2023-05-13T13:45:03;3.55;;;2.72;;
72273;SDS011;60208;48.692;8.948;2023-05-13T13:47:31;3.50;;;2.70;;
72273;SDS011;60208;48.692;8.948;2023-05-13T13:49:57;3.35;;;2.58;;
72273;SDS011;60208;48.692;8.948;2023-05-13T13:52:22;3.83;;;2.47;;
72273;SDS011;60208;48.692;8.948;2023-05-13T13:54:50;3.03;;;2.60;;
72273;SDS011;60208;48.692;8.948;2023-05-13T13:57:16;8.20;;;4.40;;
72273;SDS011;60208;48.692;8.948;2023-05-13T13:59:41;3.17;;;2.63;;
72273;SDS011;60208;48.692;8.948;2023-05-13T14:02:06;3.22;;;2.85;;
72273;SDS011;60208;48.692;8.948;2023-05-13T14:04:41;2.88;;;2.65;;
72273;SDS011;60208;48.692;8.948;2023-05-13T14:07:06;2.92;;;2.72;;
72273;SDS011;60208;48.692;8.948;2023-05-13T14:09:32;3.95;;;3.20;;
72273;SDS011;60208;48.692;8.948;2023-05-13T14:11:57;3.80;;;2.88;;
72273;SDS011;60208;48.692;8.948;2023-05-13T14:14:23;5.45;;;3.20;;
72273;SDS011;60208;48.692;8.948;2023-05-13T14:16:51;2.88;;;2.65;;
72273;SDS011;60208;48.692;8.948;2023-05-13T14:19:17;4.47;;;2.78;;
72273;SDS011;60208;48.692;8.948;2023-05-13T14:21:44;5.35;;;3.20;;
72273;SDS011;60208;48.692;8.948;2023-05-13T14:24:09;3.10;;;2.80;;
72273;SDS011;60208;48.692;8.948;2023-05-13T14:26:36;3.92;;;3.03;;
72273;SDS011;60208;48.692;8.948;2023-05-13T14:29:01;4.05;;;2.90;;
72273;SDS011;60208;48.692;8.948;2023-05-13T14:31:26;3.30;;;2.72;;
72273;SDS011;60208;48.692;8.948;2023-05-13T14:33:52;3.70;;;3.40;;
72273;SDS011;60208;48.692;8.948;2023-05-13T14:36:17;3.88;;;3.20;;
72273;SDS011;60208;48.692;8.948;2023-05-13T14:38:47;4.80;;;3.67;;
72273;SDS011;60208;48.692;8.948;2023-05-13T14:41:13;3.55;;;3.13;;
72273;SDS011;60208;48.692;8.948;2023-05-13T14:43:44;4.25;;;3.05;;
72273;SDS011;60208;48.692;8.948;2023-05-13T14:46:13;2.75;;;2.55;;
72273;SDS011;60208;48.692;8.948;2023-05-13T14:48:38;4.25;;;3.33;;
72273;SDS011;60208;48.692;8.948;2023-05-13T14:51:04;3.88;;;2.92;;
72273;SDS011;60208;48.692;8.948;2023-05-13T14:53:30;4.03;;;3.10;;
72273;SDS011;60208;48.692;8.948;2023-05-13T14:55:55;4.45;;;3.03;;
72273;SDS011;60208;48.692;8.948;2023-05-13T14:58:24;3.95;;;3.22;;
72273;SDS011;60208;48.692;8.948;2023-05-13T15:00:49;4.55;;;3.28;;
72273;SDS011;60208;48.692;8.948;2023-05-13T15:06:55;3.70;;;3.40;;
72273;SDS011;60208;48.692;8.948;2023-05-13T15:09:23;3.85;;;3.40;;
72273;SDS011;60208;48.692;8.948;2023-05-13T15:11:51;3.30;;;3.00;;
72273;SDS011;60208;48.692;8.948;2023-05-13T15:14:22;2.97;;;2.78;;
72273;SDS011;60208;48.692;8.948;2023-05-13T15:16:49;3.58;;;3.20;;
72273;SDS011;60208;48.692;8.948;2023-05-13T15:19:15;4.57;;;2.80;;
72273;SDS011;60208;48.692;8.948;2023-05-13T15:21:47;5.00;;;2.63;;
72273;SDS011;60208;48.692;8.948;2023-05-13T15:24:12;4.53;;;3.40;;